createdAt,value
2022-11-04T00:02:06.215Z,78.59
2022-11-04T00:04:37.928Z,79.16
2022-11-04T00:07:26.236Z,79.50
2022-11-04T00:09:54.697Z,79.14
2022-11-04T00:12:27.200Z,79.27
2022-11-04T00:15:15.738Z,79.99
2022-11-04T00:17:42.940Z,80.57
2022-11-04T00:20:30.420Z,80.47
2022-11-04T00:23:16.115Z,80.29
2022-11-04T00:26:01.676Z,80.32
2022-11-04T00:28:45.387Z,80.32
2022-11-04T00:31:30.688Z,80.53
2022-11-04T00:33:59.579Z,81.66
2022-11-04T00:36:31.571Z,81.92
2022-11-04T00:39:00.123Z,82.31
2022-11-04T00:41:28.898Z,82.65
2022-11-04T00:43:58.477Z,82.56
2022-11-04T00:46:26.761Z,82.41
2022-11-04T00:48:55.084Z,82.51
2022-11-04T00:51:23.348Z,82.06
2022-11-04T00:53:53.198Z,83.21
2022-11-04T00:56:21.688Z,83.18
2022-11-04T00:58:51.513Z,83.16
2022-11-04T01:01:20.552Z,83.61
2022-11-04T01:03:50.312Z,83.19
2022-11-04T01:06:19.596Z,83.30
2022-11-04T01:08:50.456Z,83.16
2022-11-04T01:11:19.772Z,83.09
2022-11-04T01:13:47.671Z,83.36
2022-11-04T01:16:15.669Z,83.55
2022-11-04T01:18:43.652Z,83.46
2022-11-04T01:21:14.341Z,83.91
2022-11-04T01:23:44.270Z,84.14
2022-11-04T01:26:21.614Z,84.13
2022-11-04T01:28:50.298Z,84.30
2022-11-04T01:31:21.477Z,84.03
2022-11-04T01:33:50.029Z,83.91
2022-11-04T01:36:18.761Z,83.41
2022-11-04T01:38:47.056Z,84.52
2022-11-04T01:41:21.678Z,83.84
2022-11-04T01:43:54.443Z,84.56
2022-11-04T01:46:33.933Z,83.60
2022-11-04T01:49:07.386Z,83.77
2022-11-04T01:51:38.520Z,83.55
2022-11-04T01:54:09.541Z,83.68
2022-11-04T01:56:40.981Z,83.76
2022-11-04T01:59:13.852Z,84.00
2022-11-04T02:01:42.320Z,83.40
2022-11-04T02:04:26.482Z,83.42
2022-11-04T02:06:58.040Z,83.66
2022-11-04T02:09:28.390Z,83.48
2022-11-04T02:12:15.831Z,84.03
2022-11-04T02:14:45.253Z,83.97
2022-11-04T02:17:25.293Z,84.72
2022-11-04T02:20:20.907Z,84.89
2022-11-04T02:23:13.638Z,85.27
2022-11-04T02:26:03.174Z,85.17
2022-11-04T02:29:02.064Z,85.21
2022-11-04T02:31:38.822Z,86.03
2022-11-04T02:34:15.355Z,86.04
2022-11-04T02:36:47.869Z,86.53
2022-11-04T02:39:29.218Z,86.82
2022-11-04T02:42:02.405Z,86.68
2022-11-04T02:44:36.252Z,86.43
2022-11-04T02:47:08.623Z,86.70
2022-11-04T02:49:42.653Z,86.79
2022-11-04T02:52:13.679Z,87.91
2022-11-04T02:54:47.757Z,87.70
2022-11-04T02:57:21.385Z,87.33
2022-11-04T02:59:57.222Z,87.59
2022-11-04T03:02:30.174Z,88.13
2022-11-04T03:05:00.525Z,88.27
2022-11-04T03:07:33.244Z,88.81
2022-11-04T03:10:06.445Z,88.76
2022-11-04T03:12:40.886Z,89.26
2022-11-04T03:15:16.007Z,89.55
2022-11-04T03:17:51.714Z,90.27
2022-11-04T03:20:24.207Z,90.81
2022-11-04T03:22:55.749Z,91.23
2022-11-04T03:25:29.186Z,91.58
2022-11-04T03:28:06.190Z,91.47
2022-11-04T03:30:41.305Z,91.94
2022-11-04T03:33:16.404Z,92.46
2022-11-04T03:35:44.408Z,92.26
2022-11-04T03:38:12.296Z,93.32
2022-11-04T03:40:40.279Z,93.42
2022-11-04T03:43:12.899Z,93.19
2022-11-04T03:45:43.182Z,93.28
2022-11-04T03:48:11.423Z,94.21
2022-11-04T03:50:43.194Z,94.75
2022-11-04T03:53:14.374Z,94.77
2022-11-04T03:56:06.133Z,94.83
2022-11-04T03:58:44.406Z,95.16
2022-11-04T04:01:23.750Z,96.04
2022-11-04T04:03:58.624Z,95.97
2022-11-04T04:06:30.863Z,95.83
2022-11-04T04:09:05.157Z,95.96
2022-11-04T04:11:42.599Z,96.00
2022-11-04T04:14:38.365Z,96.34
2022-11-04T04:17:13.999Z,97.61
2022-11-04T04:19:44.631Z,98.00
2022-11-04T04:22:17.172Z,98.66
2022-11-04T04:25:07.207Z,97.92
2022-11-04T04:27:36.395Z,97.94
2022-11-04T04:30:07.926Z,97.70
2022-11-04T04:32:40.516Z,97.64
2022-11-04T04:35:27.028Z,97.03
2022-11-04T04:38:17.596Z,96.14
2022-11-04T04:41:09.014Z,95.58
2022-11-04T04:44:07.215Z,94.62
2022-11-04T04:46:37.027Z,93.92
2022-11-04T04:49:07.654Z,92.76
2022-11-04T04:51:39.452Z,91.73
2022-11-04T04:54:07.488Z,90.45
2022-11-04T04:56:35.434Z,89.85
2022-11-04T04:59:03.308Z,88.48
2022-11-04T05:01:32.633Z,87.37
2022-11-04T05:04:00.808Z,87.16
2022-11-04T05:06:30.091Z,84.59
2022-11-04T05:08:58.048Z,84.46
2022-11-04T05:11:27.283Z,84.16
2022-11-04T05:13:55.384Z,82.30
2022-11-04T05:16:23.482Z,82.23
2022-11-04T05:18:53.093Z,82.25
2022-11-04T05:21:20.976Z,80.33
2022-11-04T05:23:50.279Z,80.30
2022-11-04T05:26:18.243Z,80.05
2022-11-04T05:28:46.098Z,79.64
2022-11-04T05:31:14.477Z,80.14
2022-11-04T05:33:42.422Z,79.44
2022-11-04T05:36:11.799Z,78.94
2022-11-04T05:38:40.445Z,79.23
2022-11-04T05:41:12.006Z,79.68
2022-11-04T05:43:40.003Z,78.83
2022-11-04T05:46:07.995Z,78.89
2022-11-04T05:48:40.334Z,78.76
2022-11-04T05:51:08.895Z,78.59
2022-11-04T05:53:36.766Z,78.50
2022-11-04T05:56:05.039Z,78.37
2022-11-04T05:58:34.391Z,78.95
2022-11-04T06:01:25.321Z,77.69
2022-11-04T06:03:53.674Z,78.32
2022-11-04T06:06:22.156Z,78.13
2022-11-04T06:08:50.942Z,78.38
2022-11-04T06:11:19.722Z,78.48
2022-11-04T06:13:49.116Z,77.59
2022-11-04T06:16:17.277Z,77.36
2022-11-04T06:18:45.404Z,78.07
2022-11-04T06:21:29.339Z,77.14
2022-11-04T06:23:58.584Z,77.67
2022-11-04T06:26:28.880Z,77.86
2022-11-04T06:28:58.841Z,77.82
2022-11-04T06:31:27.327Z,77.64
2022-11-04T06:33:55.233Z,77.95
2022-11-04T06:36:23.226Z,78.35
2022-11-04T06:38:51.183Z,78.78
2022-11-04T06:41:19.147Z,78.42
2022-11-04T06:43:47.213Z,78.40
2022-11-04T06:46:32.764Z,78.38
2022-11-04T06:49:00.790Z,79.12
2022-11-04T06:51:28.840Z,79.68
2022-11-04T06:53:56.683Z,80.17
2022-11-04T06:56:24.678Z,80.55
2022-11-04T06:58:55.634Z,80.39
2022-11-04T07:01:25.703Z,80.75
2022-11-04T07:03:57.399Z,80.07
2022-11-04T07:06:25.776Z,80.54
2022-11-04T07:08:54.589Z,80.39
2022-11-04T07:11:25.100Z,80.16
2022-11-04T07:13:53.456Z,80.52
2022-11-04T07:16:21.430Z,80.30
2022-11-04T07:18:50.498Z,80.79
2022-11-04T07:21:19.772Z,79.95
2022-11-04T07:23:48.057Z,80.58
2022-11-04T07:26:16.005Z,79.62
2022-11-04T07:28:43.819Z,79.10
2022-11-04T07:31:14.573Z,79.80
2022-11-04T07:33:42.578Z,79.42
2022-11-04T07:36:13.644Z,79.63
2022-11-04T07:38:43.221Z,80.11
2022-11-04T07:41:11.239Z,80.17
2022-11-04T07:43:39.074Z,80.85
2022-11-04T07:46:08.863Z,80.11
2022-11-04T07:48:37.755Z,78.71
2022-11-04T07:51:06.906Z,79.37
2022-11-04T07:53:35.305Z,79.99
2022-11-04T07:56:07.379Z,79.17
2022-11-04T07:58:35.609Z,79.26
2022-11-04T08:01:07.223Z,79.25
2022-11-04T08:03:36.924Z,79.65
2022-11-04T08:06:06.532Z,79.31
2022-11-04T08:08:35.087Z,78.02
2022-11-04T08:11:06.798Z,78.89
2022-11-04T08:13:36.410Z,78.54
2022-11-04T08:16:06.458Z,78.47
2022-11-04T08:18:35.153Z,77.70
2022-11-04T08:21:04.409Z,78.38
2022-11-04T08:23:33.221Z,77.87
2022-11-04T08:26:02.007Z,78.29
2022-11-04T08:28:31.396Z,77.45
2022-11-04T08:31:02.295Z,77.70
2022-11-04T08:33:32.631Z,78.31
2022-11-04T08:36:03.090Z,78.07
2022-11-04T08:38:31.186Z,77.67
2022-11-04T08:41:00.216Z,77.76
2022-11-04T08:43:28.812Z,77.21
2022-11-04T08:45:58.477Z,77.01
2022-11-04T08:48:26.358Z,76.52
2022-11-04T08:50:59.012Z,76.54
2022-11-04T08:53:27.572Z,75.68
2022-11-04T08:55:56.056Z,76.36
2022-11-04T08:58:24.935Z,76.29
2022-11-04T09:00:53.325Z,76.00
2022-11-04T09:03:22.566Z,75.04
2022-11-04T09:05:50.724Z,73.70
2022-11-04T09:08:19.333Z,74.50
2022-11-04T09:10:48.908Z,73.85
2022-11-04T09:13:17.498Z,74.11
2022-11-04T09:15:45.676Z,73.06
2022-11-04T09:18:13.649Z,74.07
2022-11-04T09:20:43.380Z,73.42
2022-11-04T09:23:11.614Z,72.73
2022-11-04T09:25:39.625Z,71.95
2022-11-04T09:28:07.859Z,71.30
2022-11-04T09:30:36.273Z,71.04
2022-11-04T09:33:04.759Z,71.51
2022-11-04T09:35:32.795Z,72.56
2022-11-04T09:38:02.251Z,73.10
2022-11-04T09:40:30.367Z,72.46
2022-11-04T09:43:11.939Z,71.94
2022-11-04T09:45:42.852Z,71.84
2022-11-04T09:48:20.784Z,71.46
2022-11-04T09:50:53.525Z,71.56
2022-11-04T09:53:28.320Z,71.58
2022-11-04T09:55:59.685Z,69.33
2022-11-04T09:58:30.897Z,69.51
2022-11-04T10:01:04.785Z,69.22
2022-11-04T10:03:48.185Z,68.70
2022-11-04T10:06:33.234Z,69.10
2022-11-04T10:09:10.341Z,70.25
2022-11-04T10:11:46.981Z,69.33
2022-11-04T10:14:45.725Z,69.04
2022-11-04T10:17:27.577Z,70.20
2022-11-04T10:20:09.229Z,69.49
2022-11-04T10:22:47.988Z,69.84
2022-11-04T10:25:22.835Z,69.93
2022-11-04T10:27:52.246Z,70.96
2022-11-04T10:30:22.678Z,71.36
2022-11-04T10:33:04.343Z,71.13
2022-11-04T10:35:36.708Z,71.49
2022-11-04T10:38:19.109Z,71.68
2022-11-04T10:40:53.194Z,71.18
2022-11-04T10:43:29.734Z,71.18
2022-11-04T10:46:12.190Z,70.77
2022-11-04T10:48:49.158Z,70.38
2022-11-04T10:51:20.550Z,70.42
2022-11-04T10:53:48.751Z,70.50
2022-11-04T10:56:29.129Z,70.46
2022-11-04T10:58:57.049Z,70.85
2022-11-04T11:01:28.349Z,70.24
2022-11-04T11:03:57.164Z,70.37
2022-11-04T11:06:29.295Z,69.05
2022-11-04T11:09:00.907Z,69.53
2022-11-04T11:11:45.272Z,67.89
2022-11-04T11:14:32.046Z,67.47
2022-11-04T11:17:18.987Z,67.84
2022-11-04T11:19:52.259Z,68.67
2022-11-04T11:22:37.336Z,67.96
2022-11-04T11:25:26.084Z,67.38
2022-11-04T11:27:59.089Z,67.55
2022-11-04T11:30:31.627Z,67.46
2022-11-04T11:33:03.749Z,66.91
2022-11-04T11:35:41.469Z,67.19
2022-11-04T11:38:19.653Z,66.52
2022-11-04T11:41:10.842Z,66.44
2022-11-04T11:43:41.708Z,65.99
2022-11-04T11:46:10.850Z,66.28
2022-11-04T11:48:42.919Z,66.10
2022-11-04T11:51:14.292Z,67.33
2022-11-04T11:54:02.584Z,65.76
2022-11-04T11:57:06.943Z,66.28
2022-11-04T12:02:35.074Z,64.70
2022-11-04T12:10:53.147Z,64.20
2022-11-04T12:13:28.680Z,63.45
2022-11-04T12:16:21.135Z,63.68
2022-11-04T12:19:05.770Z,62.95
2022-11-04T12:21:38.440Z,64.00
2022-11-04T12:24:17.894Z,64.20
2022-11-04T12:26:56.974Z,63.87
2022-11-04T12:29:40.172Z,63.49
2022-11-04T12:32:17.220Z,63.23
2022-11-04T12:34:57.011Z,63.88
2022-11-04T12:37:35.523Z,62.95
2022-11-04T12:40:18.114Z,63.94
2022-11-04T12:42:58.634Z,64.40
2022-11-04T12:45:35.784Z,63.87
2022-11-04T12:48:11.131Z,63.63
2022-11-04T12:50:54.855Z,62.46
2022-11-04T12:53:48.187Z,62.22
2022-11-04T12:56:18.979Z,62.13
2022-11-04T12:59:04.560Z,62.22
2022-11-04T13:01:38.963Z,61.90
2022-11-04T13:04:15.477Z,61.67
2022-11-04T13:06:46.555Z,61.82
2022-11-04T13:09:18.031Z,61.92
2022-11-04T13:11:52.539Z,62.03
2022-11-04T13:14:29.698Z,61.80
2022-11-04T13:17:01.510Z,61.99
2022-11-04T13:19:36.181Z,61.97
2022-11-04T13:22:08.852Z,62.71
2022-11-04T13:24:40.068Z,62.07
2022-11-04T13:27:17.603Z,60.96
2022-11-04T13:29:45.911Z,61.17
2022-11-04T13:32:22.316Z,60.88
2022-11-04T13:34:58.763Z,61.74
2022-11-04T13:37:32.451Z,60.92
2022-11-04T13:40:04.206Z,61.44
2022-11-04T13:43:19.971Z,61.22
2022-11-04T13:45:51.668Z,61.88
2022-11-04T13:48:23.571Z,62.13
2022-11-04T13:51:01.290Z,62.21
2022-11-04T13:53:44.030Z,62.41
2022-11-04T13:56:33.430Z,63.28
2022-11-04T13:59:06.772Z,63.11
2022-11-04T14:01:36.275Z,63.33
2022-11-04T14:04:20.989Z,63.55
2022-11-04T14:06:55.829Z,63.33
2022-11-04T14:09:51.199Z,62.66
2022-11-04T14:12:27.739Z,63.64
2022-11-04T14:14:57.850Z,63.79
2022-11-04T14:18:09.104Z,63.12
2022-11-04T14:21:03.971Z,63.57
2022-11-04T14:23:34.803Z,64.27
2022-11-04T14:26:06.431Z,64.15
2022-11-04T14:28:36.172Z,64.48
2022-11-04T14:31:05.377Z,64.94
2022-11-04T14:33:37.157Z,64.49
2022-11-04T14:36:28.631Z,64.14
2022-11-04T14:39:02.371Z,64.79
2022-11-04T14:41:51.789Z,64.66
2022-11-04T14:44:30.861Z,66.42
2022-11-04T14:47:02.699Z,66.75
2022-11-04T14:49:41.646Z,68.90
2022-11-04T14:52:20.743Z,69.19
2022-11-04T14:54:52.661Z,69.36
2022-11-04T14:57:23.757Z,68.81
2022-11-04T14:59:54.040Z,68.91
2022-11-04T15:02:24.145Z,68.82
2022-11-04T15:04:57.699Z,68.72
2022-11-04T15:07:35.547Z,68.92
2022-11-04T15:10:19.775Z,69.91
2022-11-04T15:12:55.172Z,69.71
2022-11-04T15:15:33.441Z,69.75
2022-11-04T15:18:04.225Z,69.66
2022-11-04T15:20:33.148Z,69.95
2022-11-04T15:23:04.631Z,70.29
2022-11-04T15:25:37.273Z,71.95
2022-11-04T15:28:06.249Z,71.91
2022-11-04T15:30:34.667Z,72.22
2022-11-04T15:33:04.478Z,72.23
2022-11-04T15:35:34.491Z,72.58
2022-11-04T15:38:04.308Z,73.07
2022-11-04T15:40:36.066Z,74.11
2022-11-04T15:43:05.266Z,75.02
2022-11-04T15:45:40.258Z,74.70
2022-11-04T15:48:29.767Z,74.44
2022-11-04T15:51:24.885Z,76.07
2022-11-04T15:53:56.485Z,75.02
2022-11-04T15:56:28.964Z,74.84
2022-11-04T15:58:58.657Z,75.25
2022-11-04T16:01:29.291Z,75.57
2022-11-04T16:03:59.941Z,74.55
2022-11-04T16:06:36.393Z,74.30
2022-11-04T16:09:08.211Z,73.74
2022-11-04T16:11:38.699Z,72.70
2022-11-04T16:14:22.685Z,70.92
2022-11-04T16:16:53.723Z,71.57
2022-11-04T16:19:23.953Z,71.80
2022-11-04T16:22:00.964Z,71.25
2022-11-04T16:24:32.635Z,70.98
2022-11-04T16:27:02.710Z,71.36
2022-11-04T16:29:33.743Z,71.53
2022-11-04T16:32:26.914Z,72.16
2022-11-04T16:34:58.616Z,71.81
2022-11-04T16:37:27.776Z,71.48
2022-11-04T16:39:55.627Z,71.80
2022-11-04T16:42:25.091Z,71.97
2022-11-04T16:44:58.152Z,71.71
2022-11-04T16:47:28.318Z,71.96
2022-11-04T16:49:56.201Z,72.41
2022-11-04T16:52:26.731Z,73.13
2022-11-04T16:54:56.663Z,73.26
2022-11-04T16:57:26.592Z,73.56
2022-11-04T16:59:55.873Z,73.47
2022-11-04T17:02:28.971Z,74.24
2022-11-04T17:04:57.680Z,73.59
2022-11-04T17:07:40.546Z,73.86
2022-11-04T17:10:17.402Z,74.27
2022-11-04T17:12:47.663Z,74.88
2022-11-04T17:15:16.925Z,74.42
2022-11-04T17:17:45.448Z,74.80
2022-11-04T17:20:17.793Z,75.16
2022-11-04T17:22:47.574Z,75.19
2022-11-04T17:25:20.177Z,75.56
2022-11-04T17:27:50.318Z,75.81
2022-11-04T17:30:19.441Z,76.06
2022-11-04T17:32:50.748Z,76.33
2022-11-04T17:35:19.189Z,75.95
2022-11-04T17:37:47.221Z,75.76
2022-11-04T17:40:17.953Z,76.68
2022-11-04T17:43:08.555Z,76.36
2022-11-04T17:45:41.798Z,77.19
2022-11-04T17:48:14.259Z,77.32
2022-11-04T17:50:42.698Z,77.25
2022-11-04T17:53:11.261Z,77.31
2022-11-04T17:55:41.360Z,77.74
2022-11-04T17:58:12.543Z,77.52
2022-11-04T18:00:41.913Z,77.34
2022-11-04T18:03:12.507Z,77.58
2022-11-04T18:05:40.921Z,77.60
2022-11-04T18:08:08.818Z,78.04
2022-11-04T18:10:36.805Z,78.37
2022-11-04T18:13:04.003Z,78.73
2022-11-04T18:15:32.018Z,78.74
2022-11-04T18:18:01.360Z,79.14
2022-11-04T18:20:29.669Z,78.91
2022-11-04T18:22:57.603Z,79.38
2022-11-04T18:25:25.785Z,79.11
2022-11-04T18:27:53.775Z,79.19
2022-11-04T18:30:22.502Z,79.50
2022-11-04T18:32:50.467Z,79.55
2022-11-04T18:35:20.281Z,79.51
2022-11-04T18:37:48.159Z,78.83
2022-11-04T18:40:16.599Z,78.45
2022-11-04T18:42:44.645Z,78.16
2022-11-04T18:45:13.045Z,78.16
2022-11-04T18:47:41.265Z,77.67
2022-11-04T18:50:10.491Z,78.13
2022-11-04T18:52:40.501Z,77.94
2022-11-04T18:55:10.029Z,77.76
2022-11-04T18:57:39.993Z,78.02
2022-11-04T19:00:14.263Z,78.46
2022-11-04T19:02:45.089Z,78.33
2022-11-04T19:05:13.566Z,78.71
2022-11-04T19:07:43.728Z,78.78
2022-11-04T19:10:12.450Z,79.63
2022-11-04T19:12:57.745Z,79.82
2022-11-04T19:15:26.462Z,79.13
2022-11-04T19:17:54.471Z,79.01
2022-11-04T19:20:23.614Z,79.27
2022-11-04T19:22:53.101Z,79.10
2022-11-04T19:25:21.230Z,79.06
2022-11-04T19:28:05.293Z,79.59
2022-11-04T19:30:37.683Z,79.84
2022-11-04T19:33:05.665Z,80.41
2022-11-04T19:35:33.634Z,80.56
2022-11-04T19:38:03.289Z,80.63
2022-11-04T19:40:31.241Z,81.01
2022-11-04T19:43:10.596Z,81.56
2022-11-04T19:45:46.093Z,81.46
2022-11-04T19:48:14.752Z,81.42
2022-11-04T19:50:44.810Z,81.42
2022-11-04T19:53:14.497Z,81.71
2022-11-04T19:55:49.267Z,82.09
2022-11-04T19:58:17.532Z,81.56
2022-11-04T20:00:45.753Z,81.70
2022-11-04T20:03:13.746Z,81.87
2022-11-04T20:05:43.549Z,81.69
2022-11-04T20:08:12.419Z,81.80
2022-11-04T20:10:44.594Z,82.03
2022-11-04T20:13:33.547Z,82.40
2022-11-04T20:16:01.812Z,82.19
2022-11-04T20:18:29.832Z,82.54
2022-11-04T20:20:57.778Z,82.67
2022-11-04T20:23:25.824Z,82.98
2022-11-04T20:25:55.130Z,82.49
2022-11-04T20:28:23.034Z,82.57
2022-11-04T20:30:51.287Z,82.99
2022-11-04T20:33:19.295Z,83.36
2022-11-04T20:35:47.331Z,83.25
2022-11-04T20:38:15.639Z,83.60
2022-11-04T20:40:43.644Z,83.60
2022-11-04T20:43:12.901Z,83.81
2022-11-04T20:45:40.862Z,83.70
2022-11-04T20:48:09.245Z,83.89
2022-11-04T20:50:37.700Z,84.13
2022-11-04T20:53:05.709Z,84.43
2022-11-04T20:55:33.780Z,84.27
2022-11-04T20:58:02.066Z,84.59
2022-11-04T21:00:31.380Z,84.68
2022-11-04T21:02:59.297Z,84.58
2022-11-04T21:05:27.223Z,84.93
2022-11-04T21:07:55.208Z,85.19
2022-11-04T21:10:23.471Z,85.00
2022-11-04T21:12:53.341Z,85.26
2022-11-04T21:15:38.505Z,85.68
2022-11-04T21:18:08.856Z,85.71
2022-11-04T21:20:39.763Z,85.91
2022-11-04T21:23:07.814Z,86.06
2022-11-04T21:25:41.043Z,86.13
2022-11-04T21:28:09.301Z,85.75
2022-11-04T21:30:38.962Z,85.70
2022-11-04T21:33:08.522Z,85.98
2022-11-04T21:35:36.917Z,85.57
2022-11-04T21:38:05.303Z,86.42
2022-11-04T21:40:34.475Z,86.25
2022-11-04T21:43:02.590Z,86.34
2022-11-04T21:45:30.673Z,86.92
2022-11-04T21:47:58.628Z,86.84
2022-11-04T21:50:28.146Z,86.81
2022-11-04T21:52:56.090Z,86.65
2022-11-04T21:55:24.064Z,86.65
2022-11-04T21:57:52.034Z,86.56
2022-11-04T22:00:19.929Z,86.70
2022-11-04T22:02:51.952Z,86.71
2022-11-04T22:05:21.083Z,87.15
2022-11-04T22:08:08.265Z,86.86
2022-11-04T22:10:37.546Z,87.21
2022-11-04T22:13:05.453Z,86.61
2022-11-04T22:15:51.209Z,87.07
2022-11-04T22:18:19.142Z,87.00
2022-11-04T22:20:47.048Z,86.95
2022-11-04T22:23:16.883Z,87.03
2022-11-04T22:25:49.929Z,87.03
2022-11-04T22:28:19.472Z,87.07
2022-11-04T22:30:47.372Z,87.14
2022-11-04T22:33:15.334Z,86.57
2022-11-04T22:35:46.993Z,87.82
2022-11-04T22:38:16.771Z,87.92
2022-11-04T22:40:44.805Z,87.84
2022-11-04T22:43:13.879Z,87.59
2022-11-04T22:45:41.795Z,87.78
2022-11-04T22:48:09.697Z,87.24
2022-11-04T22:50:37.727Z,87.90
2022-11-04T22:53:05.700Z,87.37
2022-11-04T22:55:36.497Z,87.19
2022-11-04T22:58:04.609Z,87.29
2022-11-04T23:00:32.494Z,87.38
2022-11-04T23:03:00.618Z,87.97
2022-11-04T23:05:28.825Z,87.56
2022-11-04T23:07:56.899Z,87.57
2022-11-04T23:10:42.404Z,87.59
2022-11-04T23:13:29.225Z,87.86
2022-11-04T23:16:15.091Z,87.83
2022-11-04T23:18:42.992Z,88.14
2022-11-04T23:21:30.019Z,88.30
2022-11-04T23:24:15.565Z,88.13
2022-11-04T23:26:45.375Z,88.35
2022-11-04T23:29:33.502Z,88.12
2022-11-04T23:32:01.681Z,88.16
2022-11-04T23:34:47.210Z,87.98
2022-11-04T23:37:15.811Z,88.40
2022-11-04T23:39:45.388Z,88.32
2022-11-04T23:42:18.040Z,88.27
2022-11-04T23:45:06.901Z,88.07
2022-11-04T23:47:54.298Z,88.19
2022-11-04T23:50:40.631Z,88.05
2022-11-04T23:53:26.484Z,88.14
2022-11-04T23:56:12.271Z,88.58
2022-11-04T23:58:57.564Z,88.13
